createdAt,value
2018-08-06T00:00:51.050Z,101205.00
2018-08-06T00:03:21.020Z,101204.00
2018-08-06T00:05:50.578Z,101206.00
2018-08-06T00:08:20.555Z,101206.00
2018-08-06T00:10:50.485Z,101203.00
2018-08-06T00:13:20.418Z,101204.00
2018-08-06T00:15:50.368Z,101200.00
2018-08-06T00:18:20.431Z,101200.00
2018-08-06T00:20:50.396Z,101198.00
2018-08-06T00:23:20.610Z,101199.00
2018-08-06T00:25:50.585Z,101202.00
2018-08-06T00:28:20.503Z,101201.00
2018-08-06T00:30:50.238Z,101197.00
2018-08-06T00:33:20.000Z,101189.00
2018-08-06T00:35:49.817Z,101179.00
2018-08-06T00:38:19.716Z,101185.00
2018-08-06T00:40:50.662Z,101182.00
2018-08-06T00:43:20.633Z,101174.00
2018-08-06T00:45:50.731Z,101179.00
2018-08-06T00:48:20.697Z,101178.00
2018-08-06T00:50:50.541Z,101173.00
2018-08-06T00:53:20.645Z,101170.00
2018-08-06T00:55:50.565Z,101168.00
2018-08-06T00:58:20.405Z,101169.00
2018-08-06T01:00:50.105Z,101170.00
2018-08-06T01:03:19.866Z,101162.00
2018-08-06T01:05:49.900Z,101162.00
2018-08-06T01:08:19.766Z,101158.00
2018-08-06T01:10:49.731Z,101158.00
2018-08-06T01:13:19.615Z,101159.00
2018-08-06T01:15:49.548Z,101149.00
2018-08-06T01:18:19.472Z,101151.00
2018-08-06T01:20:49.356Z,101146.00
2018-08-06T01:23:19.352Z,101146.00
2018-08-06T01:25:49.301Z,101145.00
2018-08-06T01:28:19.359Z,101136.00
2018-08-06T01:30:49.062Z,101133.00
2018-08-06T01:33:19.062Z,101132.00
2018-08-06T01:35:48.772Z,101126.00
2018-08-06T01:38:18.698Z,101127.00
2018-08-06T01:40:48.757Z,101126.00
2018-08-06T01:43:19.958Z,101125.00
2018-08-06T01:45:50.906Z,101126.00
2018-08-06T01:48:21.370Z,101119.00
2018-08-06T01:50:50.843Z,101117.00
2018-08-06T01:53:20.741Z,101114.00
2018-08-06T01:55:50.766Z,101113.00
2018-08-06T01:58:20.700Z,101112.00
2018-08-06T02:00:50.665Z,101110.00
2018-08-06T02:03:20.817Z,101116.00
2018-08-06T02:05:50.868Z,101110.00
2018-08-06T02:08:20.811Z,101113.00
2018-08-06T02:10:50.783Z,101110.00
2018-08-06T02:13:20.800Z,101106.00
2018-08-06T02:15:50.772Z,101106.00
2018-08-06T02:18:20.942Z,101102.00
2018-08-06T02:20:51.121Z,101102.00
2018-08-06T02:23:20.887Z,101100.00
2018-08-06T02:25:50.901Z,101095.00
2018-08-06T02:28:20.839Z,101093.00
2018-08-06T02:30:50.736Z,101092.00
2018-08-06T02:33:20.693Z,101091.00
2018-08-06T02:35:50.477Z,101091.00
2018-08-06T02:38:20.709Z,101092.00
2018-08-06T02:40:50.752Z,101088.00
2018-08-06T02:43:20.774Z,101088.00
2018-08-06T02:45:51.847Z,101089.00
2018-08-06T02:48:21.743Z,101081.00
2018-08-06T02:50:51.678Z,101085.00
2018-08-06T02:53:21.743Z,101087.00
2018-08-06T02:55:51.683Z,101080.00
2018-08-06T02:58:21.628Z,101078.00
2018-08-06T03:00:51.601Z,101082.00
2018-08-06T03:03:21.737Z,101080.00
2018-08-06T03:05:51.588Z,101068.00
2018-08-06T03:08:21.758Z,101069.00
2018-08-06T03:10:51.746Z,101073.00
2018-08-06T03:13:21.622Z,101071.00
2018-08-06T03:15:51.586Z,101073.00
2018-08-06T03:18:24.253Z,101072.00
2018-08-06T03:20:54.222Z,101072.00
2018-08-06T03:23:24.068Z,101067.00
2018-08-06T03:25:54.308Z,101069.00
2018-08-06T03:28:24.103Z,101064.00
2018-08-06T03:30:54.163Z,101062.00
2018-08-06T03:33:24.236Z,101059.00
2018-08-06T03:35:54.311Z,101060.00
2018-08-06T03:38:24.373Z,101060.00
2018-08-06T03:40:54.373Z,101059.00
2018-08-06T03:43:24.257Z,101054.00
2018-08-06T03:45:54.031Z,101059.00
2018-08-06T03:48:23.879Z,101052.00
2018-08-06T03:50:53.865Z,101052.00
2018-08-06T03:53:23.963Z,101055.00
2018-08-06T03:55:54.073Z,101051.00
2018-08-06T03:58:24.913Z,101057.00
2018-08-06T04:00:54.772Z,101052.00
2018-08-06T04:03:24.832Z,101055.00
2018-08-06T04:05:54.862Z,101053.00
2018-08-06T04:08:24.938Z,101047.00
2018-08-06T04:10:54.749Z,101047.00
2018-08-06T04:13:24.608Z,101045.00
2018-08-06T04:15:54.406Z,101047.00
2018-08-06T04:18:24.312Z,101042.00
2018-08-06T04:20:54.177Z,101044.00
2018-08-06T04:23:23.977Z,101044.00
2018-08-06T04:25:53.897Z,101046.00
2018-08-06T04:28:23.292Z,101041.00
2018-08-06T04:30:53.308Z,101039.00
2018-08-06T04:33:23.318Z,101039.00
2018-08-06T04:35:52.755Z,101041.00
2018-08-06T04:38:22.696Z,101037.00
2018-08-06T04:40:52.492Z,101045.00
2018-08-06T04:43:22.413Z,101041.00
2018-08-06T04:45:53.199Z,101038.00
2018-08-06T04:48:23.857Z,101038.00
2018-08-06T04:50:53.799Z,101038.00
2018-08-06T04:53:23.677Z,101033.00
2018-08-06T04:55:53.606Z,101035.00
2018-08-06T04:58:23.571Z,101032.00
2018-08-06T05:00:53.508Z,101024.00
2018-08-06T05:03:23.651Z,101025.00
2018-08-06T05:05:53.652Z,101023.00
2018-08-06T05:08:23.598Z,101022.00
2018-08-06T05:10:53.503Z,101028.00
2018-08-06T05:13:23.421Z,101016.00
2018-08-06T05:15:53.257Z,101021.00
2018-08-06T05:18:23.158Z,101020.00
2018-08-06T05:20:52.911Z,101024.00
2018-08-06T05:23:39.973Z,101025.00
2018-08-06T05:26:09.977Z,101029.00
2018-08-06T05:28:39.756Z,101029.00
2018-08-06T05:31:09.749Z,101028.00
2018-08-06T05:33:39.808Z,101028.00
2018-08-06T05:36:09.825Z,101027.00
2018-08-06T05:38:39.773Z,101023.00
2018-08-06T05:41:10.172Z,101025.00
2018-08-06T05:43:40.428Z,101017.00
2018-08-06T05:46:10.637Z,101013.00
2018-08-06T05:48:40.861Z,101021.00
2018-08-06T05:51:11.141Z,101022.00
2018-08-06T05:53:41.402Z,101019.00
2018-08-06T05:56:11.858Z,101023.00
2018-08-06T05:58:42.581Z,101024.00
2018-08-06T06:01:12.479Z,101020.00
2018-08-06T06:03:42.516Z,101024.00
2018-08-06T06:06:12.478Z,101027.00
2018-08-06T06:08:42.278Z,101029.00
2018-08-06T06:11:12.917Z,101022.00
2018-08-06T06:13:42.783Z,101021.00
2018-08-06T06:16:12.674Z,101022.00
2018-08-06T06:18:42.633Z,101023.00
2018-08-06T06:21:12.632Z,101020.00
2018-08-06T06:23:42.423Z,101018.00
2018-08-06T06:26:12.393Z,101019.00
2018-08-06T06:28:42.432Z,101017.00
2018-08-06T06:31:12.602Z,101011.00
2018-08-06T06:33:42.062Z,101012.00
2018-08-06T06:36:12.002Z,101017.00
2018-08-06T06:38:42.094Z,101020.00
2018-08-06T06:41:11.941Z,101024.00
2018-08-06T06:43:42.145Z,101021.00
2018-08-06T06:46:13.359Z,101023.00
2018-08-06T06:48:43.469Z,101020.00
2018-08-06T06:51:13.612Z,101016.00
2018-08-06T06:53:43.708Z,101018.00
2018-08-06T06:56:13.713Z,101013.00
2018-08-06T06:58:43.699Z,101011.00
2018-08-06T07:01:13.747Z,101012.00
2018-08-06T07:03:43.644Z,101010.00
2018-08-06T07:06:13.767Z,101011.00
2018-08-06T07:08:43.692Z,101013.00
2018-08-06T07:11:13.520Z,101012.00
2018-08-06T07:13:43.271Z,101006.00
2018-08-06T07:16:13.413Z,101005.00
2018-08-06T07:18:43.377Z,101006.00
2018-08-06T07:21:13.449Z,101006.00
2018-08-06T07:23:43.579Z,101005.00
2018-08-06T07:26:13.607Z,100999.00
2018-08-06T07:28:43.406Z,100993.00
2018-08-06T07:31:13.398Z,100994.00
2018-08-06T07:33:43.274Z,100991.00
2018-08-06T07:36:13.287Z,100990.00
2018-08-06T07:38:43.759Z,100989.00
2018-08-06T07:41:14.901Z,100984.00
2018-08-06T07:43:44.627Z,100980.00
2018-08-06T07:46:14.448Z,100983.00
2018-08-06T07:48:44.509Z,100977.00
2018-08-06T07:51:14.042Z,100975.00
2018-08-06T07:53:43.961Z,100972.00
2018-08-06T07:56:14.152Z,100972.00
2018-08-06T08:34:06.016Z,100924.00
2018-08-06T08:36:36.004Z,100921.00
2018-08-06T08:39:10.229Z,100912.00
2018-08-06T08:41:40.163Z,100907.00
2018-08-06T08:44:10.095Z,100910.00
2018-08-06T08:46:40.234Z,100903.00
2018-08-06T08:49:10.273Z,100898.00
2018-08-06T08:51:40.382Z,100901.00
2018-08-06T08:54:10.320Z,100895.00
2018-08-06T08:56:40.481Z,100891.00
2018-08-06T08:59:10.728Z,100885.00
2018-08-06T09:01:40.714Z,100880.00
2018-08-06T09:04:11.203Z,100881.00
2018-08-06T09:06:41.108Z,100883.00
2018-08-06T09:09:13.422Z,100880.00
2018-08-06T09:11:43.544Z,100870.00
2018-08-06T09:14:13.741Z,100869.00
2018-08-06T09:16:44.017Z,100859.00
2018-08-06T09:19:14.074Z,100859.00
2018-08-06T09:21:43.904Z,100854.00
2018-08-06T09:24:13.849Z,100856.00
2018-08-06T09:26:43.905Z,100855.00
2018-08-06T09:29:13.889Z,100855.00
2018-08-06T09:31:43.874Z,100853.00
2018-08-06T09:34:13.713Z,100851.00
2018-08-06T09:36:43.609Z,100850.00
2018-08-06T09:39:13.925Z,100848.00
2018-08-06T09:41:44.064Z,100843.00
2018-08-06T09:44:14.010Z,100849.00
2018-08-06T09:46:44.425Z,100845.00
2018-08-06T09:49:14.512Z,100842.00
2018-08-06T09:51:44.729Z,100838.00
2018-08-06T09:54:14.709Z,100832.00
2018-08-06T09:56:44.846Z,100826.00
2018-08-06T09:59:15.062Z,100821.00
2018-08-06T10:01:50.108Z,100814.00
2018-08-06T10:04:20.001Z,100805.00
2018-08-06T10:06:49.999Z,100796.00
2018-08-06T10:09:20.277Z,100785.00
2018-08-06T10:11:50.307Z,100783.00
2018-08-06T10:14:20.429Z,100791.00
2018-08-06T10:16:50.514Z,100773.00
2018-08-06T10:19:20.591Z,100776.00
2018-08-06T10:21:50.674Z,100763.00
2018-08-06T10:24:20.729Z,100765.00
2018-08-06T10:26:50.703Z,100757.00
2018-08-06T10:29:20.745Z,100763.00
2018-08-06T10:31:50.703Z,100762.00
2018-08-06T10:34:20.690Z,100749.00
2018-08-06T10:36:50.783Z,100750.00
2018-08-06T10:39:20.586Z,100750.00
2018-08-06T10:41:50.901Z,100744.00
2018-08-06T10:44:20.884Z,100744.00
2018-08-06T10:46:51.059Z,100739.00
2018-08-06T10:49:21.162Z,100734.00
2018-08-06T10:51:51.091Z,100726.00
2018-08-06T10:54:21.195Z,100722.00
2018-08-06T10:56:51.504Z,100720.00
2018-08-06T10:59:21.735Z,100716.00
2018-08-06T11:01:51.569Z,100719.00
2018-08-06T11:04:21.456Z,100711.00
2018-08-06T11:06:51.614Z,100708.00
2018-08-06T11:09:21.949Z,100705.00
2018-08-06T11:11:51.934Z,100695.00
2018-08-06T11:14:21.973Z,100688.00
2018-08-06T11:16:52.159Z,100683.00
2018-08-06T11:19:22.771Z,100679.00
2018-08-06T11:21:52.816Z,100682.00
2018-08-06T11:24:22.224Z,100662.00
2018-08-06T11:26:52.384Z,100665.00
2018-08-06T11:29:22.479Z,100662.00
2018-08-06T11:31:52.524Z,100663.00
2018-08-06T11:34:22.634Z,100663.00
2018-08-06T11:36:52.864Z,100662.00
2018-08-06T11:39:22.835Z,100655.00
2018-08-06T11:41:53.151Z,100652.00
2018-08-06T11:44:22.712Z,100649.00
2018-08-06T11:46:52.904Z,100650.00
2018-08-06T11:49:22.970Z,100643.00
2018-08-06T11:51:53.187Z,100641.00
2018-08-06T11:54:23.833Z,100641.00
2018-08-06T11:56:54.966Z,100636.00
2018-08-06T11:59:24.751Z,100644.00
2018-08-06T12:01:54.848Z,100634.00
2018-08-06T12:04:25.159Z,100629.00
2018-08-06T12:06:55.229Z,100631.00
2018-08-06T12:09:25.230Z,100624.00
2018-08-06T12:11:55.439Z,100624.00
2018-08-06T12:14:25.708Z,100622.00
2018-08-06T12:16:55.671Z,100615.00
2018-08-06T12:19:25.784Z,100617.00
2018-08-06T12:21:55.875Z,100610.00
2018-08-06T12:24:25.920Z,100614.00
2018-08-06T12:26:55.640Z,100615.00
2018-08-06T12:29:25.578Z,100617.00
2018-08-06T12:31:55.679Z,100616.00
2018-08-06T12:34:25.601Z,100607.00
2018-08-06T12:36:55.593Z,100611.00
2018-08-06T12:39:26.085Z,100609.00
2018-08-06T12:41:56.037Z,100601.00
2018-08-06T12:44:26.120Z,100599.00
2018-08-06T12:46:56.156Z,100600.00
2018-08-06T12:49:26.164Z,100599.00
2018-08-06T12:51:55.923Z,100602.00
2018-08-06T12:54:25.975Z,100607.00
2018-08-06T12:57:02.289Z,100603.00
2018-08-06T12:59:32.170Z,100597.00
2018-08-06T13:02:02.135Z,100601.00
2018-08-06T13:04:32.108Z,100587.00
2018-08-06T13:07:02.354Z,100584.00
2018-08-06T13:09:32.334Z,100580.00
2018-08-06T13:12:02.168Z,100582.00
2018-08-06T13:14:33.136Z,100584.00
2018-08-06T13:17:04.019Z,100570.00
2018-08-06T13:19:34.163Z,100569.00
2018-08-06T13:22:04.257Z,100567.00
2018-08-06T13:24:34.309Z,100559.00
2018-08-06T13:27:04.394Z,100555.00
2018-08-06T13:29:34.616Z,100551.00
2018-08-06T13:32:04.865Z,100551.00
2018-08-06T13:34:34.784Z,100546.00
2018-08-06T13:37:04.831Z,100542.00
2018-08-06T13:39:34.802Z,100538.00
2018-08-06T13:42:04.914Z,100545.00
2018-08-06T13:44:34.827Z,100541.00
2018-08-06T13:47:05.064Z,100536.00
2018-08-06T13:49:35.095Z,100532.00
2018-08-06T13:52:05.238Z,100530.00
2018-08-06T13:54:35.278Z,100527.00
2018-08-06T13:57:05.303Z,100529.00
2018-08-06T13:59:35.524Z,100518.00
2018-08-06T14:02:05.671Z,100507.00
2018-08-06T14:04:35.684Z,100511.00
2018-08-06T14:07:05.905Z,100515.00
2018-08-06T14:09:35.889Z,100514.00
2018-08-06T14:12:06.233Z,100506.00
2018-08-06T14:14:36.077Z,100508.00
2018-08-06T14:17:06.176Z,100507.00
2018-08-06T14:19:35.974Z,100503.00
2018-08-06T14:22:07.049Z,100503.00
2018-08-06T14:24:37.827Z,100500.00
2018-08-06T14:27:07.985Z,100505.00
2018-08-06T14:29:38.124Z,100498.00
2018-08-06T14:32:08.032Z,100502.00
2018-08-06T14:34:38.067Z,100491.00
2018-08-06T14:37:08.374Z,100491.00
2018-08-06T14:39:38.660Z,100485.00
2018-08-06T14:42:08.677Z,100484.00
2018-08-06T14:44:38.810Z,100482.00
2018-08-06T14:47:09.242Z,100481.00
2018-08-06T14:49:39.328Z,100477.00
2018-08-06T14:52:09.299Z,100482.00
2018-08-06T14:54:39.303Z,100474.00
2018-08-06T14:57:09.242Z,100473.00
2018-08-06T14:59:39.414Z,100470.00
2018-08-06T15:02:09.604Z,100470.00
2018-08-06T15:04:39.636Z,100467.00
2018-08-06T15:07:09.651Z,100459.00
2018-08-06T15:09:39.724Z,100455.00
2018-08-06T15:12:09.810Z,100460.00
2018-08-06T15:14:39.810Z,100455.00
2018-08-06T15:17:09.902Z,100453.00
2018-08-06T15:19:40.104Z,100454.00
2018-08-06T15:22:10.389Z,100449.00
2018-08-06T15:24:40.285Z,100446.00
2018-08-06T15:27:10.500Z,100449.00
2018-08-06T15:29:40.371Z,100442.00
2018-08-06T15:32:10.754Z,100437.00
2018-08-06T15:34:40.801Z,100439.00
2018-08-06T15:37:11.032Z,100436.00
2018-08-06T15:39:41.015Z,100435.00
2018-08-06T15:42:11.084Z,100433.00
2018-08-06T15:44:41.150Z,100434.00
2018-08-06T15:47:11.121Z,100430.00
2018-08-06T15:49:41.220Z,100418.00
2018-08-06T15:52:11.257Z,100420.00
2018-08-06T15:54:41.444Z,100416.00
2018-08-06T15:57:11.534Z,100412.00
2018-08-06T15:59:41.646Z,100410.00
2018-08-06T16:02:11.641Z,100406.00
2018-08-06T16:04:41.695Z,100406.00
2018-08-06T16:07:11.737Z,100404.00
2018-08-06T16:09:42.311Z,100399.00
2018-08-06T16:12:12.399Z,100391.00
2018-08-06T16:14:42.418Z,100396.00
2018-08-06T16:17:12.424Z,100393.00
2018-08-06T16:19:42.200Z,100392.00
2018-08-06T16:22:12.387Z,100392.00
2018-08-06T16:24:42.232Z,100390.00
2018-08-06T16:27:12.265Z,100385.00
2018-08-06T16:29:42.047Z,100380.00
2018-08-06T16:32:12.236Z,100386.00
2018-08-06T16:34:42.461Z,100381.00
2018-08-06T16:37:20.441Z,100377.00
2018-08-06T16:39:50.548Z,100378.00
2018-08-06T16:42:20.356Z,100382.00
2018-08-06T16:44:50.583Z,100374.00
2018-08-06T16:47:20.604Z,100378.00
2018-08-06T16:49:50.609Z,100374.00
2018-08-06T16:52:21.042Z,100370.00
2018-08-06T16:54:51.336Z,100371.00
2018-08-06T16:57:21.720Z,100366.00
2018-08-06T16:59:51.875Z,100367.00
2018-08-06T17:02:21.964Z,100365.00
2018-08-06T17:04:51.826Z,100364.00
2018-08-06T17:07:21.661Z,100367.00
2018-08-06T17:09:52.016Z,100362.00
2018-08-06T17:12:22.775Z,100358.00
2018-08-06T17:14:53.038Z,100353.00
2018-08-06T17:17:23.001Z,100355.00
2018-08-06T17:19:53.169Z,100359.00
2018-08-06T17:22:23.277Z,100360.00
2018-08-06T17:24:53.685Z,100360.00
2018-08-06T17:27:24.041Z,100363.00
2018-08-06T17:29:54.252Z,100359.00
2018-08-06T17:32:24.159Z,100368.00
2018-08-06T17:34:54.353Z,100365.00
2018-08-06T17:37:24.558Z,100365.00
2018-08-06T17:39:54.670Z,100363.00
2018-08-06T17:42:24.883Z,100358.00
2018-08-06T17:44:55.081Z,100357.00
2018-08-06T17:47:25.376Z,100354.00
2018-08-06T17:49:55.551Z,100356.00
2018-08-06T17:52:25.870Z,100358.00
2018-08-06T17:54:56.002Z,100359.00
2018-08-06T17:57:26.087Z,100364.00
2018-08-06T17:59:57.218Z,100357.00
2018-08-06T18:02:28.259Z,100354.00
2018-08-06T18:04:58.375Z,100354.00
2018-08-06T18:07:28.390Z,100355.00
2018-08-06T18:09:58.608Z,100353.00
2018-08-06T18:12:28.701Z,100353.00
2018-08-06T18:14:58.765Z,100358.00
2018-08-06T18:17:29.125Z,100366.00
2018-08-06T18:19:59.327Z,100369.00
2018-08-06T18:22:29.855Z,100366.00
2018-08-06T18:25:00.177Z,100370.00
2018-08-06T18:27:30.076Z,100371.00
2018-08-06T18:29:59.963Z,100372.00
2018-08-06T18:32:30.218Z,100371.00
2018-08-06T18:35:00.390Z,100380.00
2018-08-06T18:37:30.515Z,100374.00
2018-08-06T18:40:00.976Z,100377.00
2018-08-06T18:42:31.287Z,100372.00
2018-08-06T18:45:01.508Z,100377.00
2018-08-06T18:47:31.921Z,100373.00
2018-08-06T18:50:02.177Z,100377.00
2018-08-06T18:52:32.657Z,100372.00
2018-08-06T18:55:02.728Z,100375.00
2018-08-06T18:57:33.312Z,100380.00
2018-08-06T19:00:03.547Z,100376.00
2018-08-06T19:02:33.805Z,100379.00
2018-08-06T19:05:03.725Z,100380.00
2018-08-06T19:07:34.139Z,100386.00
2018-08-06T19:10:04.404Z,100384.00
2018-08-06T19:12:39.557Z,100382.00
2018-08-06T19:15:09.991Z,100380.00
2018-08-06T19:17:45.080Z,100383.00
2018-08-06T19:20:15.371Z,100388.00
2018-08-06T19:22:46.511Z,100386.00
2018-08-06T19:25:21.682Z,100386.00
2018-08-06T19:27:51.789Z,100391.00
2018-08-06T19:30:22.136Z,100393.00
2018-08-06T19:32:52.070Z,100394.00
2018-08-06T19:35:22.156Z,100396.00
2018-08-06T19:37:52.963Z,100389.00
2018-08-06T19:40:22.860Z,100398.00
2018-08-06T19:42:57.756Z,100400.00
2018-08-06T19:45:28.140Z,100401.00
2018-08-06T19:47:58.498Z,100402.00
2018-08-06T19:50:33.566Z,100399.00
2018-08-06T19:53:03.694Z,100402.00
2018-08-06T19:55:38.656Z,100402.00
2018-08-06T19:58:09.043Z,100401.00
2018-08-06T20:00:39.217Z,100403.00
2018-08-06T20:03:09.447Z,100401.00
2018-08-06T20:05:39.947Z,100403.00
2018-08-06T20:08:10.242Z,100403.00
2018-08-06T20:10:40.346Z,100410.00
2018-08-06T20:13:10.390Z,100410.00
2018-08-06T20:15:40.439Z,100413.00
2018-08-06T20:18:10.456Z,100411.00
2018-08-06T20:20:40.655Z,100413.00
2018-08-06T20:23:10.554Z,100417.00
2018-08-06T20:25:40.881Z,100416.00
2018-08-06T20:28:10.917Z,100416.00
2018-08-06T20:30:41.081Z,100418.00
2018-08-06T20:33:11.290Z,100416.00
2018-08-06T20:35:41.357Z,100414.00
2018-08-06T20:38:11.645Z,100415.00
2018-08-06T20:40:41.711Z,100414.00
2018-08-06T20:43:11.972Z,100411.00
2018-08-06T20:45:42.402Z,100414.00
2018-08-06T20:48:12.750Z,100411.00
2018-08-06T20:50:43.035Z,100414.00
2018-08-06T20:53:13.235Z,100417.00
2018-08-06T20:55:43.290Z,100420.00
2018-08-06T20:58:13.418Z,100421.00
2018-08-06T21:00:43.372Z,100419.00
2018-08-06T21:03:13.649Z,100422.00
2018-08-06T21:05:44.283Z,100422.00
2018-08-06T21:08:14.628Z,100420.00
2018-08-06T21:10:44.969Z,100423.00
2018-08-06T21:13:15.047Z,100422.00
2018-08-06T21:15:45.202Z,100420.00
2018-08-06T21:18:15.292Z,100422.00
2018-08-06T21:20:45.683Z,100415.00
2018-08-06T21:23:15.680Z,100422.00
2018-08-06T21:25:45.709Z,100426.00
2018-08-06T21:28:15.866Z,100421.00
2018-08-06T21:30:45.743Z,100421.00
2018-08-06T21:33:15.681Z,100422.00
2018-08-06T21:35:45.774Z,100419.00
2018-08-06T21:38:16.056Z,100423.00
2018-08-06T21:40:46.176Z,100416.00
2018-08-06T21:43:16.139Z,100415.00
2018-08-06T21:45:46.205Z,100414.00
2018-08-06T21:48:16.310Z,100412.00
2018-08-06T21:50:46.265Z,100413.00
2018-08-06T21:53:16.517Z,100418.00
2018-08-06T21:55:46.736Z,100414.00
2018-08-06T21:58:16.745Z,100408.00
2018-08-06T22:00:46.996Z,100408.00
2018-08-06T22:03:18.657Z,100403.00
2018-08-06T22:05:48.983Z,100404.00
2018-08-06T22:08:19.152Z,100393.00
2018-08-06T22:10:49.286Z,100401.00
2018-08-06T22:13:19.195Z,100404.00
2018-08-06T22:15:49.288Z,100408.00
2018-08-06T22:18:19.406Z,100405.00
2018-08-06T22:20:49.277Z,100406.00
2018-08-06T22:23:19.451Z,100403.00
2018-08-06T22:25:55.939Z,100404.00
2018-08-06T22:28:25.828Z,100404.00
2018-08-06T22:30:55.801Z,100397.00
2018-08-06T22:33:25.718Z,100399.00
2018-08-06T22:35:55.684Z,100394.00
2018-08-06T22:38:25.816Z,100394.00
2018-08-06T22:40:55.708Z,100393.00
2018-08-06T22:43:25.563Z,100395.00
2018-08-06T22:45:55.601Z,100392.00
2018-08-06T22:48:25.441Z,100390.00
2018-08-06T22:50:55.392Z,100392.00
2018-08-06T22:53:25.607Z,100392.00
2018-08-06T22:56:05.919Z,100390.00
2018-08-06T22:58:36.042Z,100387.00
2018-08-06T23:01:06.445Z,100384.00
2018-08-06T23:03:36.464Z,100389.00
2018-08-06T23:06:07.098Z,100390.00
2018-08-06T23:08:37.191Z,100387.00
2018-08-06T23:11:07.517Z,100386.00
2018-08-06T23:13:37.327Z,100381.00
2018-08-06T23:16:07.462Z,100381.00
2018-08-06T23:18:37.520Z,100379.00
2018-08-06T23:21:07.328Z,100375.00
2018-08-06T23:23:38.297Z,100371.00
2018-08-06T23:26:09.690Z,100369.00
2018-08-06T23:28:40.841Z,100377.00
2018-08-06T23:31:11.786Z,100368.00
2018-08-06T23:33:41.587Z,100367.00
2018-08-06T23:36:11.576Z,100364.00
2018-08-06T23:38:41.976Z,100366.00
2018-08-06T23:41:12.081Z,100365.00
2018-08-06T23:43:42.072Z,100358.00
2018-08-06T23:46:11.861Z,100357.00
2018-08-06T23:48:41.782Z,100354.00
2018-08-06T23:51:11.610Z,100361.00
2018-08-06T23:53:41.536Z,100353.00
2018-08-06T23:56:11.728Z,100354.00
2018-08-06T23:58:41.781Z,100343.00
